Stuntz, Minnesota
Current Conditions -  °F | °C
As of 7:53 AM on Wednesday 22 Oct 2014 (Local Time) from KHIB Reporting Station
Clear Clear  
Wind Chill: 31°   Ceiling: Unl
Heat Index: 37°   Visibility: 10mi
Dew Point: 33°   Wind: 8mph
Humidity: 86%   Direction: 140°SE
Pressure: 30.15"   Gusts: NA
Location:  47.4158°N, 93.0053°W
Report Text: KHIB 221253Z AUTO 14007KT 10SM CLR 03/01 A3015 RMK AO2 SLP227 T00280006
Loading
Personal Weather Stations






























Interactive Weather Map
Tropical Storm Tracking
New forecast layout! Learn more

10-Day Weather Forecast

Advertisements
Track Severe Weather on mobile